Data for 01/04/2006

Time Sea-Level Adjusted Pressure Absolute Pressure Temperature Relative Humidity Dew Point   
(mb) (inHg) (mb) (inHg) (C) (F) (%) (C) (F)
00:05 1019 30.09 848 25.04 -0.3 31.5 60 -7.1 19.3
00:10 1019 30.09 848 25.04 -0.4 31.2 63 -6.7 19.9
00:15 1019 30.09 848 25.04 -0.8 30.5 63 -7 19.3
00:20 1019 30.09 848 25.04 -1.1 30 65 -6.9 19.6
00:25 1019 30.09 848 25.04 -1.6 29.1 67 -7 19.5
00:30 1019 30.09 848 25.04 -1.7 28.9 67 -7.2 19.1
00:35 1019 30.09 848 25.04 -1.7 29 66 -7.2 19
00:40 1019 30.09 848 25.04 -1.6 29.2 66 -7.1 19.2
00:45 1019 30.09 848 25.04 -1.7 29 67 -7.1 19.3
00:50 1019 30.09 848 25.04 -1.7 28.9 68 -6.8 19.8
00:55 1019 30.09 848 25.04 -1.9 28.6 71 -6.5 20.3
01:00 1019 30.09 848 25.04 -2.1 28.3 68 -7.2 19
01:05 1019 30.09 848 25.04 -1.7 29 65 -7.4 18.8
01:10 1019 30.09 848 25.04 -1.3 29.6 64 -7.4 18.8
01:15 1019 30.09 848 25.04 -1.2 29.9 65 -7 19.4
01:20 1019 30.09 848 25.04 -1.1 30 66 -6.7 19.9
01:25 1019 30.09 848 25.04 -1.2 29.9 67 -6.6 20.1
01:30 1019 30.09 848 25.04 -1.2 29.9 63 -7.4 18.7
01:35 1019 30.09 849 25.07 -1.2 29.9 65 -7 19.5
01:40 1020 30.12 849 25.07 -1.2 29.8 64 -7.1 19.2
01:45 1020 30.12 849 25.07 -1.3 29.6 65 -7.1 19.2
01:50 1020 30.12 849 25.07 -1.4 29.6 67 -6.7 19.9
01:55 1020 30.12 849 25.07 -1.6 29.2 69 -6.5 20.3
02:00 1020 30.12 849 25.07 -1.8 28.7 69 -6.7 20
02:05 1020 30.12 849 25.07 -1.9 28.6 75 -5.8 21.5
02:10 1020 30.12 849 25.07 -2.2 28.1 74 -6.2 20.8
02:15 1020 30.12 849 25.07 -2 28.3 71 -6.5 20.2
02:20 1020 30.12 849 25.07 -1.4 29.4 64 -7.5 18.5
02:25 1020 30.12 849 25.07 -0.6 30.9 61 -7.2 19
02:30 1020 30.12 849 25.07 -0.4 31.3 62 -6.7 19.9
02:35 1020 30.12 849 25.07 0.1 32.1 59 -7.1 19.3
02:40 1020 30.12 849 25.07 0.3 32.5 56 -7.5 18.5
02:45 1020 30.12 849 25.07 0.8 33.4 55 -7.2 19
02:50 1020 30.12 849 25.07 0.9 33.6 56 -6.9 19.5
02:55 1020 30.12 849 25.07 0.9 33.6 56 -6.9 19.5
03:00 1020 30.12 850 25.1 0.9 33.7 55 -7.2 19.1
03:05 1020 30.12 850 25.1 1 33.8 54 -7.2 19.1
03:10 1020 30.12 850 25.1 1 33.8 56 -6.8 19.7
03:15 1020 30.12 850 25.1 1 33.8 55 -7 19.4
03:20 1020 30.12 850 25.1 1 33.8 54 -7.3 18.9
03:25 1020 30.12 850 25.1 1.1 33.9 55 -7 19.4
03:30 1020 30.12 850 25.1 1.1 33.9 55 -7.1 19.3
03:35 1021 30.15 850 25.1 0.9 33.7 56 -6.8 19.8
03:40 1021 30.15 850 25.1 0.8 33.5 55 -7.2 19.1
03:45 1021 30.15 850 25.1 0.8 33.4 57 -6.9 19.6
03:50 1021 30.15 850 25.1 0.7 33.2 59 -6.5 20.4
03:55 1021 30.15 850 25.1 0.5 32.9 60 -6.3 20.6
04:00 1021 30.15 850 25.1 0.3 32.5 61 -6.4 20.4
04:05 1021 30.15 850 25.1 0.5 32.9 59 -6.5 20.2
04:10 1021 30.15 850 25.1 0.5 32.9 61 -6.1 21
04:15 1021 30.15 850 25.1 -0.1 31.8 65 -6 21.2
04:20 1021 30.15 850 25.1 -0.7 30.8 66 -6.3 20.7
04:25 1021 30.15 850 25.1 -0.6 30.9 65 -6.5 20.4
04:30 1021 30.15 850 25.1 -0.6 30.9 66 -6.3 20.7
04:35 1021 30.15 850 25.1 -0.6 31 65 -6.3 20.7
04:40 1021 30.15 850 25.1 -0.2 31.6 64 -6.2 20.8
04:45 1021 30.15 850 25.1 -0.1 31.8 64 -6.1 21.1
04:50 1021 30.15 850 25.1 0 32.1 64 -6 21.2
04:55 1021 30.15 850 25.1 0.3 32.5 62 -6.2 20.9
05:00 1021 30.15 850 25.1 0.5 32.9 62 -5.9 21.4
05:05 1021 30.15 850 25.1 0.5 32.9 63 -5.7 21.8
05:10 1021 30.15 850 25.1 0.4 32.7 63 -5.8 21.6
05:15 1021 30.15 850 25.1 0.5 32.8 61 -6.3 20.7
05:20 1021 30.15 850 25.1 0.6 33.1 61 -6.1 21
05:25 1021 30.15 851 25.13 0.7 33.2 60 -6.2 20.8
05:30 1021 30.15 851 25.13 0.7 33.3 59 -6.5 20.4
05:35 1022 30.18 851 25.13 0.9 33.7 57 -6.6 20.2
05:40 1022 30.18 851 25.13 1 33.7 60 -5.9 21.4
05:45 1022 30.18 851 25.13 0.6 33.1 63 -5.7 21.7
05:50 1022 30.18 851 25.13 0.5 32.9 62 -6 21.2
05:55 1022 30.18 851 25.13 0.5 33 58 -6.7 20
06:00 1022 30.18 851 25.13 0.8 33.5 58 -6.5 20.3
06:05 1022 30.18 851 25.13 0.9 33.6 59 -6.2 20.8
06:10 1022 30.18 851 25.13 0.8 33.4 62 -5.6 21.9
06:15 1022 30.18 851 25.13 0.7 33.2 63 -5.6 21.9
06:20 1022 30.18 851 25.13 0.6 33.1 64 -5.3 22.4
06:25 1022 30.18 851 25.13 0.5 33 65 -5.3 22.5
06:30 1022 30.18 852 25.16 0.5 32.9 64 -5.5 22.2
06:35 1022 30.18 852 25.16 0.7 33.2 62 -5.7 21.7
06:40 1022 30.18 852 25.16 0.7 33.3 61 -5.9 21.4
06:45 1023 30.21 852 25.16 0.8 33.5 61 -5.8 21.6
06:50 1023 30.21 852 25.16 0.8 33.5 62 -5.6 22
06:55 1023 30.21 852 25.16 0.6 33.1 62 -5.9 21.4
07:00 1023 30.21 852 25.16 0.5 32.9 64 -5.5 22
07:05 1023 30.21 852 25.16 0.6 33 63 -5.7 21.8
07:10 1023 30.21 852 25.16 0.5 32.9 63 -5.7 21.7
07:15 1023 30.21 852 25.16 0.3 32.5 64 -5.8 21.6
07:20 1023 30.21 852 25.16 0 32 65 -5.9 21.4
07:25 1023 30.21 852 25.16 0.4 32.7 60 -6.6 20.2
07:30 1023 30.21 852 25.16 0.6 33.1 58 -6.6 20.1
07:35 1023 30.21 852 25.16 0.6 33.1 64 -5.5 22.1
07:40 1023 30.21 852 25.16 0.3 32.6 63 -6 21.2
07:45 1023 30.21 852 25.16 0.5 32.9 63 -5.7 21.7
07:50 1023 30.21 852 25.16 0.8 33.5 63 -5.4 22.2
07:55 1023 30.21 852 25.16 0.9 33.6 63 -5.3 22.5
08:00 1023 30.21 852 25.16 0.9 33.6 64 -5.1 22.8
08:05 1023 30.21 852 25.16 0.8 33.4 65 -5.1 22.8
08:10 1023 30.21 852 25.16 0.7 33.2 66 -5 22.9
08:15 1023 30.21 852 25.16 0.6 33.1 66 -5.1 22.8
08:20 1023 30.21 853 25.19 0.5 33 65 -5.2 22.6
08:25 1023 30.21 853 25.19 0.4 32.8 66 -5.1 22.8
08:30 1023 30.21 853 25.19 0.2 32.4 66 -5.3 22.5
08:35 1024 30.24 853 25.19 0.2 32.4 66 -5.3 22.4
08:40 1024 30.24 853 25.19 0.2 32.3 67 -5.3 22.4
08:45 1024 30.24 853 25.19 0.3 32.6 63 -5.9 21.3
08:50 1024 30.24 853 25.19 0.5 33 62 -5.8 21.5
08:55 1024 30.24 853 25.19 0.7 33.3 61 -6 21.3
09:00 1024 30.24 853 25.19 0.8 33.5 61 -5.8 21.5
09:05 1024 30.24 853 25.19 0.9 33.5 61 -5.9 21.4
09:10 1024 30.24 853 25.19 0.7 33.2 62 -5.8 21.5
09:15 1024 30.24 853 25.19 0.8 33.5 61 -5.9 21.3
09:20 1024 30.24 853 25.19 1.6 34.8 57 -6 21.2
09:25 1024 30.24 854 25.22 2 35.6 57 -5.6 21.9
09:30 1024 30.24 854 25.22 1.7 35.1 57 -5.9 21.5
09:35 1024 30.24 854 25.22 1.5 34.7 57 -6.1 21
09:40 1024 30.24 854 25.22 1.3 34.3 58 -6.1 20.9
09:45 1025 30.27 854 25.22 1.1 34 59 -6 21.1
09:50 1025 30.27 854 25.22 1 33.8 59 -6.1 21
09:55 1024 30.24 854 25.22 0.9 33.6 60 -6.1 20.9
10:00 1024 30.24 854 25.22 0.9 33.6 60 -6 21.2
10:05 1024 30.24 854 25.22 1.1 34 58 -6.2 20.9
10:10 1025 30.27 854 25.22 1.4 34.5 56 -6.4 20.4
10:15 1025 30.27 854 25.22 1.5 34.8 56 -6.4 20.5
10:20 1025 30.27 854 25.22 1.6 34.8 57 -6.1 21.1
10:25 1025 30.27 854 25.22 1.5 34.7 56 -6.2 20.8
10:30 1025 30.27 854 25.22 1.5 34.6 56 -6.5 20.4
10:35 1025 30.27 854 25.22 1.5 34.7 56 -6.4 20.6
10:40 1025 30.27 854 25.22 1.6 34.8 55 -6.6 20.2
10:45 1025 30.27 854 25.22 1.6 34.8 55 -6.4 20.4
10:50 1025 30.27 854 25.22 1.6 34.9 55 -6.4 20.5
10:55 1025 30.27 854 25.22 1.7 35 55 -6.5 20.4
11:00 1025 30.27 854 25.22 1.7 35 54 -6.5 20.2
11:05 1025 30.27 854 25.22 1.8 35.3 52 -7 19.3
11:10 1025 30.27 854 25.22 1.8 35.3 55 -6.3 20.6
11:15 1025 30.27 855 25.25 1.7 35.1 54 -6.6 20.1
11:20 1025 30.27 855 25.25 1.8 35.2 55 -6.4 20.4
11:25 1026 30.3 855 25.25 1.9 35.5 52 -6.8 19.7
11:30 1025 30.27 855 25.25 2.3 36.1 52 -6.6 20.2
11:35 1025 30.27 855 25.25 2.6 36.7 51 -6.7 20
11:40 1025 30.27 855 25.25 3.2 37.7 51 -5.9 21.4
11:45 1026 30.3 855 25.25 3.5 38.4 48 -6.3 20.6
11:50 1026 30.3 855 25.25 3.6 38.5 52 -5.2 22.6
11:55 1026 30.3 855 25.25 2.6 36.7 54 -5.7 21.7
12:00 1026 30.3 855 25.25 2.4 36.4 54 -6.1 21.1
12:05 1026 30.3 855 25.25 2.6 36.7 54 -5.8 21.5
12:10 1026 30.3 855 25.25 2.7 36.8 52 -6.3 20.7
12:15 1026 30.3 855 25.25 2.9 37.1 49 -6.8 19.8
12:20 1026 30.3 855 25.25 3 37.4 47 -7.2 19.1
12:25 1026 30.3 855 25.25 3 37.5 48 -7 19.3
12:30 1026 30.3 855 25.25 3.1 37.6 47 -7.2 19
12:35 1026 30.3 855 25.25 3 37.3 49 -6.8 19.7
12:40 1026 30.3 855 25.25 2.7 36.9 51 -6.5 20.2
12:45 1026 30.3 855 25.25 2.5 36.6 50 -6.8 19.7
12:50 1026 30.3 855 25.25 2.8 37.1 48 -7.2 19.1
12:55 1026 30.3 855 25.25 4 39.1 44 -7.2 19
13:00 1026 30.3 855 25.25 4.1 39.4 47 -6.3 20.6
13:05 1026 30.3 855 25.25 3.5 38.3 45 -7.2 19.1
13:10 1026 30.3 855 25.25 3.4 38.2 47 -6.9 19.5
13:15 1026 30.3 856 25.28 3 37.4 47 -7.3 18.9
13:20 1026 30.3 856 25.28 3 37.3 49 -6.8 19.8
13:25 1027 30.33 856 25.28 3.2 37.8 48 -6.9 19.7
13:30 1027 30.33 856 25.28 3.2 37.7 48 -6.9 19.6
13:35 1027 30.33 856 25.28 3.1 37.6 48 -6.8 19.7
13:40 1027 30.33 856 25.28 3.1 37.7 48 -6.8 19.8
13:45 1027 30.33 856 25.28 3.3 38 47 -6.8 19.7
13:50 1027 30.33 856 25.28 3.3 38 48 -6.5 20.2
13:55 1027 30.33 856 25.28 3.2 37.8 48 -6.8 19.8
14:00 1027 30.33 856 25.28 3.3 37.9 47 -7.1 19.3
14:05 1027 30.33 856 25.28 3.1 37.6 47 -7.1 19.3
14:10 1027 30.33 856 25.28 2.8 37.1 48 -7.1 19.2
14:15 1027 30.33 856 25.28 2.8 37 48 -7.2 19
14:20 1027 30.33 856 25.28 2.8 37.1 48 -7.1 19.1
14:25 1027 30.33 856 25.28 2.9 37.1 49 -6.8 19.7
14:30 1027 30.33 856 25.28 2.7 36.9 49 -7 19.3
14:35 1027 30.33 856 25.28 2.6 36.7 49 -7.1 19.3
14:40 1027 30.33 856 25.28 2.5 36.5 50 -6.9 19.6
14:45 1027 30.33 857 25.31 2.4 36.2 50 -7.1 19.2
14:50 1027 30.33 856 25.28 2.3 36.2 50 -7 19.4
14:55 1027 30.33 857 25.31 2.2 36 51 -6.8 19.7
15:00 1028 30.36 857 25.31 2.2 35.9 52 -6.8 19.8
15:05 1028 30.36 857 25.31 2.2 35.9 50 -7.1 19.1
15:10 1028 30.36 857 25.31 2.1 35.8 52 -6.8 19.8
15:15 1028 30.36 857 25.31 2 35.6 53 -6.6 20.1
15:20 1028 30.36 857 25.31 1.9 35.5 54 -6.5 20.3
15:25 1028 30.36 857 25.31 2 35.6 54 -6.5 20.3
15:30 1028 30.36 857 25.31 1.9 35.3 54 -6.4 20.5
15:35 1028 30.36 857 25.31 1.7 35.1 55 -6.4 20.5
15:40 1028 30.36 857 25.31 1.7 35 56 -6.1 21
15:45 1028 30.36 857 25.31 1.7 35 55 -6.3 20.6
15:50 1028 30.36 858 25.34 1.7 35.1 55 -6.4 20.5
15:55 1028 30.36 858 25.34 1.7 35 56 -6.3 20.7
16:00 1028 30.36 858 25.34 1.7 35 55 -6.4 20.6
16:05 1029 30.39 858 25.34 1.6 34.8 57 -6.1 21
16:10 1029 30.39 858 25.34 1.6 34.9 55 -6.4 20.4
16:15 1029 30.39 858 25.34 1.7 35.1 55 -6.3 20.6
16:20 1029 30.39 858 25.34 1.7 35 56 -6.1 20.9
16:25 1029 30.39 858 25.34 1.5 34.7 57 -6.2 20.9
16:30 1029 30.39 858 25.34 1.3 34.3 56 -6.5 20.4
16:35 1029 30.39 858 25.34 1.1 34 56 -6.7 20
16:40 1029 30.39 858 25.34 1.1 34.1 56 -6.7 20
16:45 1029 30.39 858 25.34 1.2 34.2 55 -6.8 19.7
16:50 1029 30.39 858 25.34 1.3 34.4 54 -6.9 19.5
16:55 1029 30.39 858 25.34 1.4 34.5 54 -6.8 19.7
17:00 1029 30.39 858 25.34 1.3 34.4 55 -6.8 19.8
17:05 1029 30.39 859 25.37 1.3 34.3 54 -7 19.4
17:10 1029 30.39 859 25.37 1.3 34.3 55 -6.8 19.8
17:15 1030 30.42 859 25.37 1 33.8 56 -6.8 19.7
17:20 1030 30.42 859 25.37 0.7 33.3 56 -7.1 19.1
17:25 1030 30.42 859 25.37 0.5 32.8 57 -7.1 19.2
17:30 1030 30.42 859 25.37 0.2 32.3 57 -7.3 18.8
17:35 1030 30.42 859 25.37 -0 32 57 -7.6 18.3
17:40 1030 30.42 859 25.37 -0.2 31.7 56 -7.9 17.7
17:45 1030 30.42 859 25.37 -0.3 31.5 56 -8.1 17.4
17:50 1030 30.42 859 25.37 -0.3 31.4 55 -8.3 17.1
17:55 1030 30.42 859 25.37 -0.3 31.4 55 -8.4 17
18:00 1030 30.42 859 25.37 -0.3 31.5 55 -8.2 17.3
18:05 1030 30.42 859 25.37 -0.5 31.1 55 -8.4 16.9
18:10 1030 30.42 859 25.37 -0.6 30.9 54 -8.7 16.4
18:15 1030 30.42 860 25.4 -1.1 30 56 -8.9 16
18:20 1030 30.42 860 25.4 -1.3 29.6 56 -9.1 15.6
18:25 1030 30.42 860 25.4 -1.3 29.7 55 -9.1 15.7
18:30 1031 30.45 860 25.4 -1.4 29.4 56 -9 15.7
18:35 1031 30.45 860 25.4 -2.3 27.9 58 -9.5 15
18:40 1031 30.45 860 25.4 -2.6 27.3 59 -9.6 14.7
18:45 1031 30.45 860 25.4 -2.3 27.8 58 -9.6 14.8
18:50 1031 30.45 860 25.4 -2.1 28.2 57 -9.6 14.8
18:55 1031 30.45 860 25.4 -2 28.4 57 -9.5 15
19:00 1031 30.45 860 25.4 -2.2 28 57 -9.6 14.7
19:05 1031 30.45 860 25.4 -2.1 28.2 57 -9.6 14.8
19:10 1031 30.45 860 25.4 -1.8 28.7 57 -9.3 15.2
19:15 1031 30.45 860 25.4 -1.7 28.9 56 -9.5 15
19:20 1031 30.45 860 25.4 -1.9 28.6 56 -9.6 14.7
19:25 1031 30.45 860 25.4 -2.1 28.2 56 -9.7 14.6
19:30 1031 30.45 860 25.4 -2.2 28.1 57 -9.6 14.8
19:35 1031 30.45 860 25.4 -2.2 28 57 -9.6 14.7
19:40 1031 30.45 861 25.43 -2.3 27.9 57 -9.7 14.6
19:45 1031 30.45 861 25.43 -2.3 27.8 57 -9.8 14.4
19:50 1031 30.45 861 25.43 -2.3 27.9 56 -9.9 14.2
19:55 1031 30.45 861 25.43 -2.6 27.3 58 -9.9 14.2
20:00 1031 30.45 860 25.4 -2.4 27.7 58 -9.5 14.9
20:05 1031 30.45 861 25.43 -2.3 27.8 59 -9.4 15.1
20:10 1031 30.45 861 25.43 -2.4 27.6 58 -9.7 14.6
20:15 1031 30.45 861 25.43 -3.1 26.5 59 -10 14
20:20 1031 30.45 861 25.43 -3.4 25.8 61 -10 14.1
20:25 1032 30.47 861 25.43 -3.4 25.9 62 -9.7 14.5
20:30 1032 30.47 861 25.43 -3.4 25.9 62 -9.6 14.7
20:35 1031 30.45 861 25.43 -3.2 26.2 61 -9.7 14.6
20:40 1031 30.45 861 25.43 -3 26.6 61 -9.5 14.9
20:45 1031 30.45 860 25.4 -3.1 26.5 64 -9 15.9
20:50 1031 30.45 860 25.4 -3.4 25.8 65 -9.1 15.6
20:55 1031 30.45 860 25.4 -3.5 25.7 65 -9.2 15.5
21:00 1031 30.45 860 25.4 -3.5 25.8 63 -9.4 15
21:05 1031 30.45 861 25.43 -3.2 26.2 63 -9.2 15.5
21:10 1032 30.47 861 25.43 -3.1 26.4 63 -9.3 15.3
21:15 1031 30.45 861 25.43 -3.4 25.8 66 -8.9 15.9
21:20 1032 30.47 861 25.43 -3.8 25.2 67 -9.1 15.7
21:25 1032 30.47 861 25.43 -3.5 25.7 65 -9.2 15.5
21:30 1032 30.47 861 25.43 -3.3 26 65 -9.1 15.7
21:35 1032 30.47 861 25.43 -3.1 26.4 63 -9.2 15.4
21:40 1032 30.47 861 25.43 -3 26.6 62 -9.3 15.3
21:45 1032 30.47 861 25.43 -2.9 26.7 62 -9.3 15.3
21:50 1032 30.47 861 25.43 -3 26.6 62 -9.2 15.4
21:55 1032 30.47 861 25.43 -3 26.5 63 -9.1 15.6
22:00 1032 30.47 861 25.43 -3.2 26.3 63 -9.2 15.5
22:05 1032 30.47 861 25.43 -3 26.5 62 -9.3 15.3
22:10 1032 30.47 861 25.43 -3.1 26.5 62 -9.4 15.1
22:15 1032 30.47 861 25.43 -3 26.5 62 -9.4 15.1
22:20 1032 30.47 862 25.45 -3 26.5 61 -9.6 14.7
22:25 1032 30.47 862 25.45 -2.6 27.4 59 -9.6 14.8
22:30 1032 30.47 862 25.45 -2.3 27.9 58 -9.6 14.8
22:35 1032 30.47 862 25.45 -2.6 27.4 58 -9.7 14.5
22:40 1032 30.47 862 25.45 -3.3 26 61 -9.8 14.3
22:45 1032 30.47 862 25.45 -3.7 25.4 63 -9.7 14.5
22:50 1032 30.47 862 25.45 -4.3 24.3 64 -10.1 13.8
22:55 1032 30.47 862 25.45 -4.6 23.7 65 -10.1 13.7
23:00 1032 30.47 862 25.45 -4.7 23.5 66 -10.1 13.7
23:05 1032 30.47 862 25.45 -4.5 23.9 65 -10.1 13.8
23:10 1032 30.47 862 25.45 -4.4 24.1 64 -10.2 13.7
23:15 1032 30.47 862 25.45 -4.4 24 65 -10.1 13.9
23:20 1032 30.47 862 25.45 -4.5 23.9 64 -10.4 13.4
23:25 1032 30.47 862 25.45 -4.6 23.8 63 -10.6 12.9
23:30 1032 30.47 862 25.45 -4.1 24.7 61 -10.4 13.2
23:35 1032 30.47 862 25.45 -4.2 24.5 63 -10.3 13.5
23:40 1032 30.47 862 25.45 -4.1 24.6 62 -10.3 13.5
23:45 1032 30.47 862 25.45 -4.4 24 64 -10.3 13.4
23:50 1032 30.47 862 25.45 -5.5 22 68 -10.5 13
23:55 1032 30.47 861 25.43 -5.8 21.6 67 -11 12.1
24:00 1032 30.47 861 25.43 -5.4 22.2 66 -10.7 12.7